createdAt,value
2017-12-04T00:01:43.875Z,1.00
2017-12-04T00:04:11.350Z,0.90
2017-12-04T00:06:38.826Z,1.10
2017-12-04T00:09:06.309Z,1.20
2017-12-04T00:11:33.781Z,1.20
2017-12-04T00:14:02.054Z,1.10
2017-12-04T00:16:29.614Z,1.10
2017-12-04T00:18:57.635Z,1.30
2017-12-04T00:21:25.114Z,1.30
2017-12-04T00:23:53.211Z,1.30
2017-12-04T00:26:20.712Z,1.30
2017-12-04T00:28:48.934Z,1.20
2017-12-04T00:31:16.461Z,1.20
2017-12-04T00:33:44.807Z,1.10
2017-12-04T00:36:12.271Z,1.10
2017-12-04T00:38:39.793Z,1.00
2017-12-04T00:41:07.238Z,0.90
2017-12-04T00:43:34.722Z,0.90
2017-12-04T00:46:02.194Z,0.90
2017-12-04T00:48:29.713Z,1.00
2017-12-04T00:50:57.960Z,1.00
2017-12-04T00:53:25.446Z,1.00
2017-12-04T00:55:53.721Z,1.00
2017-12-04T00:58:21.963Z,1.10
2017-12-04T01:00:49.454Z,1.10
2017-12-04T01:03:16.946Z,1.10
2017-12-04T01:05:45.374Z,1.10
2017-12-04T01:08:12.866Z,1.10
2017-12-04T01:10:40.357Z,1.10
2017-12-04T01:13:07.846Z,1.00
2017-12-04T01:15:35.550Z,1.00
2017-12-04T01:18:03.019Z,1.00
2017-12-04T01:20:31.229Z,1.00
2017-12-04T01:22:58.756Z,1.00
2017-12-04T01:25:26.217Z,0.90
2017-12-04T01:27:53.772Z,0.90
2017-12-04T01:30:21.256Z,0.90
2017-12-04T01:32:48.739Z,0.90
2017-12-04T01:35:17.001Z,1.10
2017-12-04T01:37:44.544Z,1.10
2017-12-04T01:40:12.179Z,1.00
2017-12-04T01:42:39.723Z,1.10
2017-12-04T01:45:07.215Z,1.20
2017-12-04T01:47:34.735Z,1.30
2017-12-04T01:50:03.025Z,1.20
2017-12-04T01:52:31.346Z,1.20
2017-12-04T01:54:58.822Z,1.20
2017-12-04T01:57:26.381Z,1.30
2017-12-04T01:59:53.890Z,1.40
2017-12-04T02:02:22.193Z,1.30
2017-12-04T02:04:49.712Z,1.30
2017-12-04T02:07:17.246Z,1.20
2017-12-04T02:09:44.763Z,1.30
2017-12-04T02:12:13.145Z,1.40
2017-12-04T02:14:41.421Z,1.40
2017-12-04T02:17:09.682Z,1.40
2017-12-04T02:19:37.215Z,1.40
2017-12-04T02:22:04.713Z,1.30
2017-12-04T02:24:32.257Z,1.30
2017-12-04T02:26:59.872Z,1.20
2017-12-04T02:29:28.151Z,1.10
2017-12-04T02:31:55.673Z,1.10
2017-12-04T02:34:23.166Z,1.10
2017-12-04T02:36:51.471Z,1.00
2017-12-04T02:39:18.970Z,1.00
2017-12-04T02:41:46.518Z,1.10
2017-12-04T02:44:14.041Z,1.20
2017-12-04T02:46:42.319Z,1.20
2017-12-04T02:49:10.567Z,1.20
2017-12-04T02:51:38.214Z,1.20
2017-12-04T02:54:05.795Z,1.20
2017-12-04T02:56:33.327Z,1.20
2017-12-04T02:59:00.950Z,1.10
2017-12-04T03:01:28.446Z,1.10
2017-12-04T03:03:55.973Z,1.20
2017-12-04T03:06:23.496Z,1.20
2017-12-04T03:08:51.000Z,1.20
2017-12-04T03:11:18.505Z,1.30
2017-12-04T03:13:46.024Z,1.30
2017-12-04T03:16:13.506Z,1.20
2017-12-04T03:18:41.795Z,1.40
2017-12-04T03:21:10.160Z,1.50
2017-12-04T03:23:37.663Z,1.50
2017-12-04T03:26:05.231Z,1.50
2017-12-04T03:28:32.793Z,1.50
2017-12-04T03:31:00.423Z,1.50
2017-12-04T03:33:27.899Z,1.40
2017-12-04T03:35:55.411Z,1.30
2017-12-04T03:38:22.991Z,1.40
2017-12-04T03:40:50.511Z,1.30
2017-12-04T03:43:18.130Z,1.40
2017-12-04T03:45:45.666Z,1.40
2017-12-04T03:48:13.214Z,1.40
2017-12-04T03:50:40.702Z,1.40
2017-12-04T03:53:08.245Z,1.40
2017-12-04T03:55:35.747Z,1.40
2017-12-04T03:58:03.258Z,1.50
2017-12-04T04:00:30.790Z,1.50
2017-12-04T04:02:58.286Z,1.50
2017-12-04T04:05:25.813Z,1.50
2017-12-04T04:07:54.163Z,1.60
2017-12-04T04:10:21.860Z,1.60
2017-12-04T04:12:49.394Z,1.60
2017-12-04T04:15:16.890Z,1.60
2017-12-04T04:17:45.158Z,1.70
2017-12-04T04:20:12.708Z,1.70
2017-12-04T04:22:40.290Z,1.70
2017-12-04T04:25:07.783Z,1.70
2017-12-04T04:27:35.409Z,1.60
2017-12-04T04:30:03.012Z,1.50
2017-12-04T04:32:30.571Z,1.50
2017-12-04T04:34:58.870Z,1.40
2017-12-04T04:37:26.368Z,1.40
2017-12-04T04:39:53.974Z,1.40
2017-12-04T04:42:22.259Z,1.40
2017-12-04T04:44:50.554Z,1.30
2017-12-04T04:47:18.042Z,1.30
2017-12-04T04:49:45.743Z,1.40
2017-12-04T04:52:13.299Z,1.30
2017-12-04T04:54:40.890Z,1.20
2017-12-04T04:57:09.150Z,1.40
2017-12-04T04:59:36.658Z,1.40
2017-12-04T05:02:04.307Z,1.40
2017-12-04T05:04:32.562Z,1.50
2017-12-04T05:07:00.085Z,1.50
2017-12-04T05:09:28.355Z,1.40
2017-12-04T05:11:55.924Z,1.60
2017-12-04T05:14:23.444Z,1.60
2017-12-04T05:16:51.135Z,1.70
2017-12-04T05:19:18.681Z,1.70
2017-12-04T05:21:46.967Z,1.70
2017-12-04T05:24:15.271Z,1.60
2017-12-04T05:26:42.784Z,1.60
2017-12-04T05:29:10.277Z,1.50
2017-12-04T05:31:38.682Z,1.50
2017-12-04T05:34:06.192Z,1.50
2017-12-04T05:36:33.729Z,1.70
2017-12-04T05:39:01.257Z,1.80
2017-12-04T05:41:28.813Z,1.90
2017-12-04T05:43:57.082Z,1.90
2017-12-04T05:46:24.624Z,1.90
2017-12-04T05:48:52.429Z,1.80
2017-12-04T05:51:20.691Z,1.70
2017-12-04T05:53:49.007Z,1.70
2017-12-04T05:56:16.678Z,1.70
2017-12-04T05:58:44.303Z,1.70
2017-12-04T06:01:11.832Z,1.70
2017-12-04T06:03:39.334Z,1.70
2017-12-04T06:06:06.860Z,1.70
2017-12-04T06:08:34.407Z,1.60
2017-12-04T06:11:01.922Z,1.60
2017-12-04T06:13:29.411Z,1.70
2017-12-04T06:15:57.703Z,1.70
2017-12-04T06:18:25.409Z,1.70
2017-12-04T06:20:52.927Z,1.70
2017-12-04T06:23:20.455Z,1.80
2017-12-04T06:25:48.015Z,1.80
2017-12-04T06:28:15.520Z,1.90
2017-12-04T06:30:43.058Z,1.90
2017-12-04T06:33:11.323Z,1.90
2017-12-04T06:35:38.846Z,1.90
2017-12-04T06:38:06.334Z,1.80
2017-12-04T06:40:33.874Z,1.80
2017-12-04T06:43:01.382Z,1.80
2017-12-04T06:45:28.922Z,1.60
2017-12-04T06:47:56.490Z,1.60
2017-12-04T06:50:24.002Z,1.40
2017-12-04T06:52:52.343Z,1.50
2017-12-04T06:55:19.842Z,1.50
2017-12-04T06:57:48.131Z,1.60
2017-12-04T07:00:15.622Z,1.60
2017-12-04T07:02:43.159Z,1.60
2017-12-04T07:05:10.687Z,1.70
2017-12-04T07:07:38.236Z,1.70
2017-12-04T07:10:05.733Z,1.60
2017-12-04T07:12:34.099Z,1.70
2017-12-04T07:15:01.632Z,1.70
2017-12-04T07:17:29.204Z,1.70
2017-12-04T07:19:56.747Z,1.80
2017-12-04T07:22:24.234Z,1.60
2017-12-04T07:24:51.722Z,1.60
2017-12-04T07:27:19.255Z,1.50
2017-12-04T07:29:46.790Z,1.60
2017-12-04T07:32:14.539Z,1.60
2017-12-04T07:34:42.894Z,1.70
2017-12-04T07:37:10.404Z,1.70
2017-12-04T07:39:37.908Z,1.60
2017-12-04T07:42:05.493Z,1.60
2017-12-04T07:44:33.135Z,1.60
2017-12-04T07:47:00.664Z,1.70
2017-12-04T07:49:28.203Z,1.70
2017-12-04T07:51:56.571Z,1.70
2017-12-04T07:54:24.362Z,1.80
2017-12-04T07:56:52.720Z,1.80
2017-12-04T07:59:20.223Z,1.70
2017-12-04T08:01:47.762Z,1.80
2017-12-04T08:04:16.027Z,1.80
2017-12-04T08:06:43.544Z,1.80
2017-12-04T08:09:11.054Z,1.80
2017-12-04T08:11:38.550Z,1.90
2017-12-04T08:14:06.194Z,1.80
2017-12-04T08:16:34.468Z,2.00
2017-12-04T08:19:01.965Z,2.00
2017-12-04T08:21:29.514Z,2.00
2017-12-04T08:23:57.792Z,2.20
2017-12-04T08:26:26.046Z,2.10
2017-12-04T08:28:53.670Z,2.10
2017-12-04T08:31:21.331Z,2.10
2017-12-04T08:33:48.836Z,2.10
2017-12-04T08:36:16.365Z,2.10
2017-12-04T08:38:43.854Z,1.90
2017-12-04T08:41:11.344Z,1.90
2017-12-04T08:43:38.943Z,2.00
2017-12-04T08:46:06.487Z,1.90
2017-12-04T08:48:34.751Z,1.90
2017-12-04T08:51:02.424Z,1.90
2017-12-04T08:53:30.680Z,2.00
2017-12-04T08:55:58.209Z,2.00
2017-12-04T08:58:25.722Z,2.10
2017-12-04T09:00:53.260Z,1.90
2017-12-04T09:03:20.758Z,1.90
2017-12-04T09:05:49.002Z,1.70
2017-12-04T09:08:16.582Z,1.70
2017-12-04T09:10:44.074Z,1.80
2017-12-04T09:13:12.361Z,2.00
2017-12-04T09:15:40.634Z,2.10
2017-12-04T09:18:08.890Z,2.20
2017-12-04T09:20:36.519Z,2.10
2017-12-04T09:23:04.042Z,2.10
2017-12-04T09:25:32.307Z,2.20
2017-12-04T09:27:59.816Z,2.20
2017-12-04T09:30:27.319Z,2.20
2017-12-04T09:32:54.837Z,2.20
2017-12-04T09:35:22.358Z,2.30
2017-12-04T09:37:49.842Z,2.30
2017-12-04T09:40:18.143Z,2.40
2017-12-04T09:42:45.642Z,2.40
2017-12-04T09:45:13.186Z,2.20
2017-12-04T09:47:40.682Z,2.20
2017-12-04T09:50:08.188Z,2.30
2017-12-04T09:52:35.733Z,2.20
2017-12-04T09:55:04.091Z,2.50
2017-12-04T09:57:32.398Z,2.60
2017-12-04T10:00:00.658Z,2.50
2017-12-04T10:02:28.228Z,2.50
2017-12-04T10:04:55.718Z,2.50
2017-12-04T10:07:24.003Z,2.50
2017-12-04T10:09:51.510Z,2.50
2017-12-04T10:12:19.040Z,2.70
2017-12-04T10:14:46.584Z,2.70
2017-12-04T10:17:14.146Z,2.60
2017-12-04T10:19:42.623Z,2.70
2017-12-04T10:22:10.914Z,2.70
2017-12-04T10:24:39.208Z,2.60
2017-12-04T10:27:06.703Z,2.60
2017-12-04T10:29:34.225Z,2.60
2017-12-04T10:32:02.479Z,2.80
2017-12-04T15:16:00.242Z,2.30
2017-12-04T15:18:27.778Z,2.40
2017-12-04T15:20:55.307Z,2.30
2017-12-04T15:23:22.839Z,2.30
2017-12-04T15:25:51.116Z,2.20
2017-12-04T15:28:18.662Z,2.20
2017-12-04T15:30:46.229Z,2.20
2017-12-04T15:33:13.767Z,2.40
2017-12-04T15:35:41.265Z,2.30
2017-12-04T15:38:08.843Z,2.40
2017-12-04T15:40:37.095Z,2.30
2017-12-04T15:43:04.660Z,2.30
2017-12-04T15:45:32.303Z,2.30
2017-12-04T15:47:59.805Z,2.40
2017-12-04T15:50:27.345Z,2.40
2017-12-04T15:52:55.111Z,2.30
2017-12-04T15:55:22.653Z,2.40
2017-12-04T15:57:50.144Z,2.30
2017-12-04T16:00:17.701Z,2.30
2017-12-04T16:02:45.227Z,2.40
2017-12-04T16:05:12.819Z,2.50
2017-12-04T16:07:40.329Z,2.60
2017-12-04T16:10:08.711Z,2.50
2017-12-04T16:12:37.068Z,2.60
2017-12-04T16:15:04.566Z,2.60
2017-12-04T16:17:32.842Z,2.30
2017-12-04T16:20:01.150Z,2.40
2017-12-04T16:22:28.650Z,2.40
2017-12-04T16:24:56.150Z,2.40
2017-12-04T16:27:24.433Z,2.50
2017-12-04T16:29:51.980Z,2.50
2017-12-04T16:32:19.531Z,2.60
2017-12-04T16:34:47.050Z,2.40
2017-12-04T16:37:14.560Z,2.30
2017-12-04T16:39:42.088Z,2.40
2017-12-04T16:42:09.594Z,2.50
2017-12-04T16:44:37.150Z,2.50
2017-12-04T16:47:04.692Z,2.60
2017-12-04T16:49:32.193Z,2.70
2017-12-04T16:51:59.738Z,2.60
2017-12-04T16:54:27.248Z,2.60
2017-12-04T16:56:54.962Z,2.30
2017-12-04T16:59:22.534Z,2.20
2017-12-04T17:01:50.023Z,2.20
2017-12-04T17:04:18.336Z,2.40
2017-12-04T17:06:45.907Z,2.40
2017-12-04T17:09:13.407Z,2.40
2017-12-04T17:11:40.941Z,2.30
2017-12-04T17:14:08.446Z,2.50
2017-12-04T17:16:36.016Z,2.50
2017-12-04T17:19:03.518Z,2.60
2017-12-04T17:21:31.082Z,2.50
2017-12-04T17:23:58.690Z,2.40
2017-12-04T17:26:26.178Z,2.40
2017-12-04T17:28:53.703Z,2.30
2017-12-04T17:31:21.248Z,2.20
2017-12-04T17:33:48.739Z,2.30
2017-12-04T17:36:16.290Z,2.30
2017-12-04T17:38:43.787Z,2.30
2017-12-04T17:41:11.297Z,2.40
2017-12-04T17:43:38.872Z,2.30
2017-12-04T17:46:06.374Z,2.30
2017-12-04T17:48:33.874Z,2.30
2017-12-04T17:51:01.406Z,2.30
2017-12-04T17:53:29.020Z,2.40
2017-12-04T17:55:56.520Z,2.30
2017-12-04T17:58:24.118Z,2.30
2017-12-04T18:00:51.614Z,2.20
2017-12-04T18:03:19.143Z,2.20
2017-12-04T18:05:47.412Z,2.20
2017-12-04T18:08:14.937Z,2.20
2017-12-04T18:10:42.957Z,2.30
2017-12-04T18:13:11.199Z,2.30
2017-12-04T18:15:38.733Z,2.30
2017-12-04T18:18:06.247Z,2.40
2017-12-04T18:20:33.900Z,2.30
2017-12-04T18:23:01.451Z,2.50
2017-12-04T18:25:29.104Z,2.50
2017-12-04T18:27:56.667Z,2.30
2017-12-04T18:30:24.215Z,2.10
2017-12-04T18:32:51.722Z,2.20
2017-12-04T18:35:19.241Z,2.20
2017-12-04T18:37:46.755Z,2.40
2017-12-04T18:40:14.254Z,2.50
2017-12-04T18:42:41.810Z,2.30
2017-12-04T18:45:10.095Z,2.70
2017-12-04T18:47:37.595Z,2.60
2017-12-04T18:50:05.155Z,2.70
2017-12-04T18:52:32.653Z,2.80
2017-12-04T18:55:00.158Z,2.80
2017-12-04T18:57:27.905Z,2.80
2017-12-04T18:59:55.401Z,2.70
2017-12-04T19:02:22.926Z,2.80
2017-12-04T19:04:50.506Z,2.90
2017-12-04T19:07:18.795Z,2.90
2017-12-04T19:09:47.045Z,3.00
2017-12-04T19:12:14.587Z,3.00
2017-12-04T19:14:42.703Z,2.80
2017-12-04T19:17:10.979Z,2.90
2017-12-04T19:19:38.552Z,2.90
2017-12-04T19:22:06.014Z,3.00
2017-12-04T19:24:34.407Z,2.90
2017-12-04T19:27:02.741Z,2.70
2017-12-04T19:29:30.288Z,2.60
2017-12-04T19:31:57.783Z,2.60
2017-12-04T19:34:25.284Z,2.70
2017-12-04T19:36:52.834Z,2.70
2017-12-04T19:39:21.112Z,2.80
2017-12-04T19:41:49.376Z,2.60
2017-12-04T19:44:16.918Z,2.60
2017-12-04T19:46:44.417Z,2.60
2017-12-04T19:49:12.811Z,2.30
2017-12-04T19:51:40.306Z,2.30
2017-12-04T19:54:07.806Z,2.30
2017-12-04T19:56:35.507Z,2.50
2017-12-04T19:59:03.179Z,2.50
2017-12-04T20:01:30.727Z,2.50
2017-12-04T20:03:58.999Z,2.30
2017-12-04T20:06:26.539Z,2.30
2017-12-04T20:08:54.035Z,2.20
2017-12-04T20:11:22.340Z,2.10
2017-12-04T20:13:49.839Z,2.10
2017-12-04T20:16:17.370Z,2.20
2017-12-04T20:18:44.926Z,2.10
2017-12-04T20:21:12.562Z,2.30
2017-12-04T20:23:40.842Z,2.40
2017-12-04T20:26:08.443Z,2.40
2017-12-04T20:28:35.927Z,2.50
2017-12-04T20:31:03.470Z,2.60
2017-12-04T20:33:31.017Z,2.30
2017-12-04T20:35:59.315Z,2.50
2017-12-04T20:38:26.856Z,2.50
2017-12-04T20:40:55.249Z,2.80
2017-12-04T20:43:23.554Z,3.00
2017-12-04T20:45:51.084Z,2.90
2017-12-04T20:48:19.388Z,3.10
2017-12-04T20:50:46.937Z,3.10
2017-12-04T20:53:14.445Z,3.10
2017-12-04T20:55:41.942Z,3.00
2017-12-04T20:58:09.479Z,3.00
2017-12-04T21:00:37.594Z,2.90
2017-12-04T21:03:05.202Z,2.70
2017-12-04T21:05:32.710Z,2.70
2017-12-04T21:08:00.258Z,2.80
2017-12-04T21:10:39.654Z,2.70
2017-12-04T21:13:19.065Z,2.70
2017-12-04T21:15:59.351Z,2.90
2017-12-04T21:18:26.891Z,2.80
2017-12-04T21:20:54.778Z,2.80
2017-12-04T21:23:23.047Z,2.90
2017-12-04T21:25:51.821Z,2.80
2017-12-04T21:28:20.130Z,2.90
2017-12-04T21:30:47.723Z,2.90
2017-12-04T21:33:16.934Z,2.90
2017-12-04T21:35:44.552Z,2.80
2017-12-04T21:38:12.079Z,2.90
2017-12-04T21:40:39.575Z,2.80
2017-12-04T21:43:07.096Z,2.80
2017-12-04T21:45:34.615Z,2.80
2017-12-04T21:48:02.151Z,2.80
2017-12-04T21:50:29.735Z,2.80
2017-12-04T21:52:57.230Z,2.90
2017-12-04T21:55:24.775Z,2.80
2017-12-04T21:57:52.279Z,2.80
2017-12-04T22:00:19.836Z,2.70
2017-12-04T22:02:47.435Z,2.70
2017-12-04T22:05:15.715Z,2.90
2017-12-04T22:07:44.035Z,2.90
2017-12-04T22:10:11.597Z,2.90
2017-12-04T22:12:39.139Z,3.00
2017-12-04T22:15:06.678Z,3.00
2017-12-04T22:17:34.208Z,3.00
2017-12-04T22:20:01.715Z,2.80
2017-12-04T22:22:30.026Z,2.80
2017-12-04T22:24:57.535Z,2.80
2017-12-04T22:27:25.076Z,2.80
2017-12-04T22:29:52.587Z,2.90
2017-12-04T22:32:21.015Z,2.80
2017-12-04T22:34:48.647Z,2.80
2017-12-04T22:37:16.131Z,2.90
2017-12-04T22:39:43.869Z,2.80
2017-12-04T22:42:12.155Z,2.90
2017-12-04T22:44:40.467Z,2.90
2017-12-04T22:47:07.974Z,2.80
2017-12-04T22:49:35.536Z,3.00
2017-12-04T22:52:03.036Z,3.00
2017-12-04T22:54:31.296Z,2.80
2017-12-04T22:56:58.835Z,2.80
2017-12-04T22:59:26.354Z,2.70
2017-12-04T23:01:53.985Z,2.80
2017-12-04T23:04:21.595Z,2.80
2017-12-04T23:06:49.130Z,2.70
2017-12-04T23:09:17.403Z,2.70
2017-12-04T23:11:45.798Z,2.70
2017-12-04T23:14:14.223Z,2.60
2017-12-04T23:16:41.804Z,2.60
2017-12-04T23:19:09.310Z,2.70
2017-12-04T23:21:37.626Z,2.60
2017-12-04T23:24:05.198Z,2.60
2017-12-04T23:26:32.760Z,2.50
2017-12-04T23:29:00.287Z,2.60
2017-12-04T23:31:28.565Z,2.70
2017-12-04T23:33:56.851Z,2.60
2017-12-04T23:36:24.374Z,2.60
2017-12-04T23:38:51.878Z,2.60
2017-12-04T23:41:20.190Z,2.80
2017-12-04T23:43:47.686Z,2.70
2017-12-04T23:46:15.179Z,2.70
2017-12-04T23:48:43.481Z,2.70
2017-12-04T23:51:11.007Z,2.70
2017-12-04T23:53:38.494Z,2.70
2017-12-04T23:56:05.985Z,2.60
2017-12-04T23:58:33.520Z,2.70
